createdAt,value
2019-02-10T00:03:06.755Z,7.28
2019-02-10T00:06:24.982Z,7.39
2019-02-10T00:09:32.197Z,7.34
2019-02-10T00:12:39.319Z,7.29
2019-02-10T00:15:46.546Z,7.39
2019-02-10T00:18:53.738Z,7.37
2019-02-10T00:22:00.924Z,7.24
2019-02-10T00:25:08.154Z,7.35
2019-02-10T00:28:15.390Z,7.22
2019-02-10T00:31:22.581Z,7.28
2019-02-10T00:34:29.704Z,7.25
2019-02-10T00:37:36.954Z,7.35
2019-02-10T00:40:44.281Z,7.37
2019-02-10T00:43:51.576Z,7.32
2019-02-10T00:46:58.708Z,7.38
2019-02-10T00:50:05.995Z,7.27
2019-02-10T00:53:22.765Z,7.41
2019-02-10T00:56:29.957Z,7.15
2019-02-10T00:59:37.080Z,7.21
2019-02-10T01:02:44.318Z,7.19
2019-02-10T01:05:51.438Z,7.13
2019-02-10T01:08:58.664Z,7.05
2019-02-10T01:12:05.878Z,7.08
2019-02-10T01:15:13.009Z,7.10
2019-02-10T01:18:20.250Z,7.00
2019-02-10T01:21:27.459Z,7.09
2019-02-10T01:24:34.658Z,6.97
2019-02-10T01:27:41.794Z,7.07
2019-02-10T01:30:48.982Z,7.09
2019-02-10T01:33:56.216Z,7.15
2019-02-10T01:37:03.331Z,7.11
2019-02-10T01:40:10.971Z,7.12
2019-02-10T01:43:27.439Z,7.01
2019-02-10T01:46:34.934Z,6.84
2019-02-10T01:49:51.410Z,7.01
2019-02-10T01:52:58.525Z,6.90
2019-02-10T01:56:05.730Z,6.79
2019-02-10T01:59:12.945Z,6.80
2019-02-10T02:02:20.141Z,6.84
2019-02-10T02:05:27.291Z,6.83
2019-02-10T02:08:34.573Z,6.84
2019-02-10T02:11:42.181Z,6.67
2019-02-10T02:14:58.595Z,6.70
2019-02-10T02:18:05.896Z,6.66
2019-02-10T02:21:22.534Z,6.79
2019-02-10T02:24:29.729Z,6.82
2019-02-10T02:27:37.251Z,6.73
2019-02-10T02:30:53.790Z,6.77
2019-02-10T02:34:10.483Z,6.69
2019-02-10T02:37:17.733Z,6.61
2019-02-10T02:40:24.853Z,6.66
2019-02-10T02:43:32.077Z,6.70
2019-02-10T02:46:39.676Z,6.68
2019-02-10T02:49:56.153Z,6.75
2019-02-10T02:53:12.795Z,6.90
2019-02-10T02:56:20.017Z,6.82
2019-02-10T02:59:27.055Z,6.81
2019-02-10T03:02:34.177Z,6.80
2019-02-10T03:05:40.237Z,6.78
2019-02-10T03:08:47.335Z,6.77
2019-02-10T03:11:55.037Z,6.60
2019-02-10T03:15:02.162Z,6.72
2019-02-10T03:18:09.385Z,6.62
2019-02-10T03:21:16.625Z,6.55
2019-02-10T03:24:23.847Z,6.69
2019-02-10T03:27:31.089Z,6.60
2019-02-10T03:30:38.303Z,6.59
2019-02-10T03:33:45.420Z,6.53
2019-02-10T03:36:52.648Z,6.47
2019-02-10T03:39:59.842Z,6.58
2019-02-10T03:43:06.968Z,6.57
2019-02-10T03:46:14.183Z,6.54
2019-02-10T03:49:21.476Z,6.44
2019-02-10T03:52:28.603Z,6.52
2019-02-10T03:55:36.181Z,6.51
2019-02-10T03:58:43.440Z,6.47
2019-02-10T04:01:50.883Z,6.48
2019-02-10T04:04:58.086Z,6.22
2019-02-10T04:08:05.282Z,6.37
2019-02-10T04:11:13.681Z,6.32
2019-02-10T04:14:20.992Z,6.29
2019-02-10T04:17:28.095Z,6.41
2019-02-10T04:20:35.247Z,6.41
2019-02-10T04:23:42.365Z,6.26
2019-02-10T04:26:49.594Z,6.38
2019-02-10T04:29:56.814Z,6.36
2019-02-10T04:33:04.228Z,6.45
2019-02-10T04:36:11.453Z,6.30
2019-02-10T04:39:18.676Z,6.23
2019-02-10T04:42:25.903Z,6.40
2019-02-10T04:45:33.131Z,6.43
2019-02-10T04:48:40.661Z,6.46
2019-02-10T04:51:47.666Z,6.49
2019-02-10T04:54:54.920Z,6.56
2019-02-10T04:58:02.607Z,6.51
2019-02-10T05:01:19.268Z,6.55
2019-02-10T05:04:26.386Z,6.53
2019-02-10T05:07:33.686Z,6.55
2019-02-10T05:10:40.911Z,6.66
2019-02-10T05:13:51.007Z,6.54
2019-02-10T05:17:12.332Z,6.60
2019-02-10T05:20:19.455Z,6.58
2019-02-10T05:23:26.743Z,6.60
2019-02-10T05:26:34.025Z,6.70
2019-02-10T05:29:50.695Z,6.69
2019-02-10T05:32:57.881Z,6.68
2019-02-10T05:36:05.237Z,6.54
2019-02-10T05:39:23.932Z,6.69
2019-02-10T05:42:31.053Z,6.54
2019-02-10T05:45:38.460Z,6.55
2019-02-10T05:48:55.083Z,6.71
2019-02-10T05:52:02.317Z,6.58
2019-02-10T05:55:09.525Z,6.59
2019-02-10T05:58:16.649Z,6.68
2019-02-10T06:02:02.051Z,6.59
2019-02-10T06:05:21.085Z,6.47
2019-02-10T06:08:37.395Z,6.52
2019-02-10T06:11:44.525Z,6.56
2019-02-10T06:14:51.669Z,6.53
2019-02-10T06:17:58.886Z,6.57
2019-02-10T06:21:06.056Z,6.49
2019-02-10T06:24:13.275Z,6.47
2019-02-10T06:27:20.409Z,6.52
2019-02-10T06:30:27.903Z,6.56
2019-02-10T06:33:35.025Z,6.45
2019-02-10T06:36:42.244Z,6.48
2019-02-10T06:39:49.434Z,6.49
2019-02-10T06:42:56.550Z,6.56
2019-02-10T06:46:03.780Z,6.56
2019-02-10T06:49:11.383Z,6.55
2019-02-10T06:52:27.766Z,6.60
2019-02-10T06:55:34.989Z,6.50
2019-02-10T06:58:42.298Z,6.49
2019-02-10T07:01:54.081Z,6.51
2019-02-10T07:05:01.234Z,6.42
2019-02-10T07:08:08.396Z,6.42
2019-02-10T07:11:15.517Z,6.43
2019-02-10T07:14:29.292Z,6.49
2019-02-10T07:18:12.810Z,6.48
2019-02-10T07:21:19.949Z,6.33
2019-02-10T07:24:36.491Z,6.37
2019-02-10T07:27:43.722Z,6.30
2019-02-10T07:30:51.511Z,6.22
2019-02-10T07:34:48.638Z,6.22
2019-02-10T07:38:06.393Z,6.17
2019-02-10T07:41:56.317Z,6.17
2019-02-10T07:45:40.839Z,6.14
2019-02-10T07:49:08.602Z,6.22
2019-02-10T07:52:45.498Z,6.18
2019-02-10T07:56:48.684Z,6.17
2019-02-10T08:00:10.828Z,6.13
2019-02-10T08:03:46.612Z,6.06
2019-02-10T08:07:10.684Z,6.16
2019-02-10T08:10:45.645Z,6.00
2019-02-10T08:14:32.031Z,6.17
2019-02-10T08:18:04.816Z,6.00
2019-02-10T08:21:57.283Z,5.93
2019-02-10T08:25:37.270Z,6.05
2019-02-10T08:29:10.921Z,6.05
2019-02-10T08:33:01.671Z,6.03
2019-02-10T08:36:52.556Z,5.90
2019-02-10T08:40:38.476Z,5.95
2019-02-10T08:44:36.235Z,5.90
2019-02-10T08:48:08.098Z,5.94
2019-02-10T08:51:55.779Z,5.98
2019-02-10T08:55:02.919Z,5.89
2019-02-10T08:58:10.078Z,5.89
2019-02-10T09:01:17.600Z,5.94
2019-02-10T09:04:34.253Z,5.94
2019-02-10T09:07:51.084Z,5.94
2019-02-10T09:11:07.670Z,5.99
2019-02-10T09:14:14.933Z,5.93
2019-02-10T09:17:22.047Z,5.91
2019-02-10T09:20:29.242Z,5.96
2019-02-10T09:23:36.521Z,5.95
2019-02-10T09:26:53.246Z,5.99
2019-02-10T09:30:11.230Z,5.94
2019-02-10T09:33:18.341Z,5.93
2019-02-10T09:36:25.517Z,5.90
2019-02-10T09:39:32.678Z,5.89
2019-02-10T09:42:40.003Z,5.90
2019-02-10T09:45:47.120Z,5.97
2019-02-10T09:48:54.342Z,5.80
2019-02-10T09:52:01.368Z,5.91
2019-02-10T09:55:08.940Z,6.01
2019-02-10T09:58:16.064Z,5.99
2019-02-10T10:01:23.177Z,6.03
2019-02-10T10:04:30.399Z,6.01
2019-02-10T10:07:37.621Z,5.97
2019-02-10T10:10:44.764Z,5.95
2019-02-10T10:13:51.881Z,5.88
2019-02-10T10:16:59.010Z,5.94
2019-02-10T10:20:07.927Z,5.86
2019-02-10T10:23:14.950Z,5.94
2019-02-10T10:26:22.198Z,5.99
2019-02-10T10:29:29.312Z,5.98
2019-02-10T10:32:36.531Z,6.02
2019-02-10T10:35:43.734Z,5.97
2019-02-10T10:38:50.952Z,5.94
2019-02-10T10:41:58.118Z,5.88
2019-02-10T10:45:05.550Z,5.89
2019-02-10T10:48:12.852Z,5.99
2019-02-10T10:51:20.046Z,6.01
2019-02-10T10:54:27.265Z,5.90
2019-02-10T10:57:32.899Z,5.94
2019-02-10T11:00:40.177Z,5.93
2019-02-10T11:03:47.478Z,5.90
2019-02-10T11:06:54.962Z,5.91
2019-02-10T11:10:11.956Z,5.99
2019-02-10T11:13:28.331Z,6.13
2019-02-10T11:16:35.456Z,6.08
2019-02-10T11:19:42.714Z,6.03
2019-02-10T11:22:49.897Z,6.03
2019-02-10T11:25:57.198Z,6.10
2019-02-10T11:29:04.321Z,6.03
2019-02-10T11:32:11.543Z,6.03
2019-02-10T11:35:18.765Z,6.18
2019-02-10T11:38:35.486Z,6.11
2019-02-10T11:41:42.713Z,6.09
2019-02-10T11:44:49.835Z,6.13
2019-02-10T11:47:56.993Z,6.05
2019-02-10T11:51:04.299Z,6.08
2019-02-10T11:54:11.491Z,6.16
2019-02-10T11:57:18.611Z,6.09
2019-02-10T12:00:25.810Z,6.16
2019-02-10T12:03:32.926Z,6.20
2019-02-10T12:06:40.416Z,6.22
2019-02-10T12:09:51.654Z,6.09
2019-02-10T12:12:56.344Z,6.21
2019-02-10T12:16:03.443Z,6.17
2019-02-10T12:19:10.566Z,6.11
2019-02-10T12:22:17.674Z,6.27
2019-02-10T12:25:25.135Z,6.15
2019-02-10T12:28:32.757Z,6.15
2019-02-10T12:31:49.055Z,6.23
2019-02-10T12:34:56.278Z,6.21
2019-02-10T12:38:03.722Z,6.20
2019-02-10T12:41:20.281Z,6.26
2019-02-10T12:44:27.490Z,6.23
2019-02-10T12:47:34.614Z,6.39
2019-02-10T12:50:41.918Z,6.27
2019-02-10T12:53:49.067Z,6.29
2019-02-10T12:56:56.196Z,6.41
2019-02-10T13:00:03.538Z,6.30
2019-02-10T13:03:10.732Z,6.37
2019-02-10T13:06:27.371Z,6.42
2019-02-10T13:09:34.857Z,6.38
2019-02-10T13:12:51.409Z,6.38
2019-02-10T13:15:59.610Z,6.39
2019-02-10T13:19:06.832Z,6.50
2019-02-10T13:22:13.946Z,6.49
2019-02-10T13:25:21.950Z,6.40
2019-02-10T13:28:29.168Z,6.42
2019-02-10T13:31:36.713Z,6.43
2019-02-10T13:34:44.238Z,6.41
2019-02-10T13:37:51.363Z,6.54
2019-02-10T13:40:58.491Z,6.54
2019-02-10T13:44:06.659Z,6.51
2019-02-10T13:47:13.883Z,6.62
2019-02-10T13:50:21.023Z,6.50
2019-02-10T13:53:27.117Z,6.52
2019-02-10T13:56:43.648Z,6.64
2019-02-10T13:59:50.041Z,6.59
2019-02-10T14:02:57.155Z,6.66
2019-02-10T14:06:04.256Z,6.83
2019-02-10T14:09:11.361Z,6.81
2019-02-10T14:12:18.476Z,6.92
2019-02-10T14:15:25.613Z,6.88
2019-02-10T14:18:32.733Z,7.01
2019-02-10T14:21:48.975Z,7.07
2019-02-10T14:24:56.197Z,7.11
2019-02-10T14:28:03.388Z,7.16
2019-02-10T14:31:20.417Z,7.15
2019-02-10T14:34:36.876Z,7.25
2019-02-10T14:37:44.166Z,7.34
2019-02-10T14:41:00.883Z,7.38
2019-02-10T14:44:17.610Z,7.49
2019-02-10T14:47:24.949Z,7.44
2019-02-10T14:50:32.170Z,7.71
2019-02-10T14:53:48.787Z,7.82
2019-02-10T14:56:55.903Z,7.70
2019-02-10T15:00:03.165Z,7.82
2019-02-10T15:03:10.389Z,7.64
2019-02-10T15:06:17.617Z,7.76
2019-02-10T15:09:24.784Z,7.97
2019-02-10T15:12:32.009Z,8.00
2019-02-10T15:15:39.236Z,8.08
2019-02-10T15:18:46.429Z,8.14
2019-02-10T15:21:53.589Z,8.26
2019-02-10T15:25:00.887Z,8.29
2019-02-10T15:28:18.143Z,8.28
2019-02-10T15:31:40.964Z,8.32
2019-02-10T15:34:57.347Z,8.21
2019-02-10T15:38:04.703Z,8.16
2019-02-10T15:41:11.829Z,8.19
2019-02-10T15:44:19.251Z,8.34
2019-02-10T15:47:35.715Z,8.51
2019-02-10T15:50:43.037Z,8.24
2019-02-10T15:53:59.958Z,8.40
2019-02-10T15:57:16.528Z,8.31
2019-02-10T16:00:25.069Z,8.26
2019-02-10T16:03:32.294Z,8.20
2019-02-10T16:06:39.420Z,8.20
2019-02-10T16:09:46.778Z,8.31
2019-02-10T16:12:53.907Z,8.44
2019-02-10T16:16:01.110Z,8.30
2019-02-10T16:19:08.326Z,8.46
2019-02-10T16:22:15.610Z,8.54
2019-02-10T16:25:22.793Z,8.37
2019-02-10T16:28:30.090Z,8.38
2019-02-10T16:31:37.459Z,8.36
2019-02-10T16:34:54.093Z,8.28
2019-02-10T16:38:11.271Z,8.24
2019-02-10T16:41:27.591Z,8.35
2019-02-10T16:44:34.719Z,8.12
2019-02-10T16:47:41.946Z,8.24
2019-02-10T16:50:49.058Z,8.16
2019-02-10T16:53:56.635Z,8.27
2019-02-10T16:57:13.213Z,8.33
2019-02-10T17:00:20.333Z,8.20
2019-02-10T17:03:29.224Z,8.29
2019-02-10T17:06:36.399Z,8.29
2019-02-10T17:09:43.521Z,8.18
2019-02-10T17:12:50.978Z,8.24
2019-02-10T17:16:07.639Z,8.26
2019-02-10T17:19:14.996Z,8.21
2019-02-10T17:22:31.606Z,8.17
2019-02-10T17:25:48.255Z,8.17
2019-02-10T17:28:55.421Z,8.02
2019-02-10T17:32:02.631Z,8.09
2019-02-10T17:35:09.961Z,8.06
2019-02-10T17:38:17.114Z,8.01
2019-02-10T17:41:39.505Z,8.03
2019-02-10T17:44:47.056Z,8.06
2019-02-10T17:47:54.323Z,7.97
2019-02-10T17:51:01.497Z,7.97
2019-02-10T17:54:08.693Z,7.91
2019-02-10T17:57:16.302Z,7.83
2019-02-10T18:00:26.127Z,7.66
2019-02-10T18:03:33.515Z,7.84
2019-02-10T18:06:40.674Z,7.77
2019-02-10T18:09:47.890Z,7.76
2019-02-10T18:12:55.338Z,7.70
2019-02-10T18:16:16.516Z,7.73
2019-02-10T18:19:51.817Z,7.68
2019-02-10T18:23:44.421Z,7.65
2019-02-10T18:27:29.104Z,7.48
2019-02-10T18:31:06.983Z,7.52
2019-02-10T18:34:52.919Z,7.54
2019-02-10T18:38:13.564Z,7.52
2019-02-10T18:41:43.055Z,7.37
2019-02-10T18:45:24.428Z,7.51
2019-02-10T18:48:49.404Z,7.41
2019-02-10T18:52:05.956Z,7.44
2019-02-10T18:55:47.879Z,7.42
2019-02-10T18:59:20.137Z,7.28
2019-02-10T19:02:41.265Z,7.38
2019-02-10T19:05:55.375Z,7.36
2019-02-10T19:09:30.745Z,7.43
2019-02-10T19:13:02.662Z,7.25
2019-02-10T19:16:44.599Z,7.27
2019-02-10T19:20:02.530Z,7.29
2019-02-10T19:23:46.159Z,7.14
2019-02-10T19:27:18.207Z,7.12
2019-02-10T19:30:43.201Z,7.16
2019-02-10T19:34:15.156Z,7.09
2019-02-10T19:37:48.572Z,6.98
2019-02-10T19:41:23.742Z,6.94
2019-02-10T19:44:50.034Z,6.92
2019-02-10T19:48:07.674Z,6.70
2019-02-10T19:51:36.394Z,6.70
2019-02-10T19:55:01.522Z,6.75
2019-02-10T19:58:34.243Z,6.73
2019-02-10T20:02:16.410Z,6.64
2019-02-10T20:05:59.253Z,6.60
2019-02-10T20:09:28.144Z,6.60
2019-02-10T20:13:07.412Z,6.42
2019-02-10T20:16:22.189Z,6.31
2019-02-10T20:20:04.218Z,6.29
2019-02-10T20:23:30.614Z,5.96
2019-02-10T20:26:54.754Z,5.66
2019-02-10T20:30:30.504Z,5.55
2019-02-10T20:33:59.465Z,5.46
2019-02-10T20:37:50.237Z,5.30
2019-02-10T20:41:19.286Z,5.22
2019-02-10T20:45:01.052Z,5.27
2019-02-10T20:48:30.234Z,5.14
2019-02-10T20:51:48.271Z,4.91
2019-02-10T20:55:23.943Z,4.90
2019-02-10T20:58:57.126Z,4.90
2019-02-10T21:02:21.606Z,4.63
2019-02-10T21:05:56.862Z,4.62
2019-02-10T21:09:36.109Z,4.68
2019-02-10T21:12:51.580Z,3.97
2019-02-10T21:16:02.938Z,3.99
2019-02-10T21:19:38.267Z,3.97
2019-02-10T21:23:13.378Z,4.07
2019-02-10T21:26:38.284Z,4.05
2019-02-10T21:30:04.407Z,3.71
2019-02-10T21:33:26.737Z,3.67
2019-02-10T21:36:46.510Z,3.38
2019-02-10T21:40:09.086Z,3.42
2019-02-10T21:43:35.289Z,3.39
2019-02-10T21:46:53.364Z,3.46
2019-02-10T21:50:24.369Z,3.39
2019-02-10T21:53:31.687Z,2.94
2019-02-10T21:56:38.813Z,2.91
2019-02-10T21:59:45.948Z,3.28
2019-02-10T22:02:53.066Z,3.38
2019-02-10T22:06:00.199Z,3.37
2019-02-10T22:09:07.807Z,3.16
2019-02-10T22:12:24.363Z,3.16
2019-02-10T22:15:31.678Z,3.23
2019-02-10T22:18:38.991Z,3.13
2019-02-10T22:21:55.806Z,3.24
2019-02-10T22:25:12.357Z,3.31
2019-02-10T22:28:29.106Z,3.37
2019-02-10T22:31:36.425Z,3.33
2019-02-10T22:34:53.058Z,3.36
2019-02-10T22:38:00.269Z,3.28
2019-02-10T22:41:07.389Z,3.27
2019-02-10T22:44:14.508Z,3.26
2019-02-10T22:47:21.650Z,3.30
2019-02-10T22:50:28.784Z,3.35
2019-02-10T22:53:36.029Z,3.32
2019-02-10T22:56:43.163Z,3.29
2019-02-10T22:59:50.589Z,3.36
2019-02-10T23:02:57.819Z,3.38
2019-02-10T23:06:05.193Z,3.32
2019-02-10T23:09:19.439Z,3.49
2019-02-10T23:12:26.574Z,3.58
2019-02-10T23:15:33.799Z,3.64
2019-02-10T23:18:41.001Z,3.72
2019-02-10T23:21:48.122Z,3.86
2019-02-10T23:24:55.911Z,4.03
2019-02-10T23:28:03.163Z,4.05
2019-02-10T23:31:10.408Z,4.19
2019-02-10T23:34:17.495Z,4.26
2019-02-10T23:37:24.606Z,4.40
2019-02-10T23:40:31.727Z,4.49
2019-02-10T23:43:38.871Z,4.53
2019-02-10T23:46:46.096Z,4.62
2019-02-10T23:49:53.534Z,4.59
2019-02-10T23:53:00.753Z,4.63
2019-02-10T23:56:07.890Z,4.62
2019-02-10T23:59:15.034Z,4.71
